createdAt,value
2022-12-02T00:02:26.462Z,1.10
2022-12-02T00:05:00.229Z,1.12
2022-12-02T00:07:34.300Z,1.07
2022-12-02T00:10:20.790Z,1.02
2022-12-02T00:12:52.262Z,0.97
2022-12-02T00:15:39.054Z,0.94
2022-12-02T00:18:11.473Z,0.97
2022-12-02T00:20:44.409Z,1.09
2022-12-02T00:23:15.960Z,1.01
2022-12-02T00:25:50.767Z,0.91
2022-12-02T00:28:20.888Z,0.83
2022-12-02T00:30:52.366Z,0.76
2022-12-02T00:33:23.963Z,0.69
2022-12-02T00:35:55.803Z,0.64
2022-12-02T00:38:27.126Z,0.63
2022-12-02T00:40:58.695Z,0.57
2022-12-02T00:43:47.955Z,0.62
2022-12-02T00:46:35.444Z,0.62
2022-12-02T00:49:11.590Z,0.62
2022-12-02T00:51:44.610Z,0.58
2022-12-02T00:54:17.080Z,0.57
2022-12-02T00:56:48.667Z,0.55
2022-12-02T00:59:20.192Z,0.52
2022-12-02T01:01:52.728Z,0.50
2022-12-02T01:04:24.289Z,0.52
2022-12-02T01:06:55.919Z,0.52
2022-12-02T01:09:27.605Z,0.46
2022-12-02T01:11:59.960Z,0.45
2022-12-02T01:14:33.013Z,0.48
2022-12-02T01:17:05.736Z,0.44
2022-12-02T01:19:37.455Z,0.38
2022-12-02T01:22:08.910Z,0.44
2022-12-02T01:24:40.255Z,0.52
2022-12-02T01:27:11.790Z,0.49
2022-12-02T01:29:43.195Z,0.41
2022-12-02T01:32:14.962Z,0.34
2022-12-02T01:34:46.512Z,0.27
2022-12-02T01:37:19.528Z,0.26
2022-12-02T01:39:51.126Z,0.27
2022-12-02T01:42:22.685Z,0.33
2022-12-02T01:44:54.463Z,0.34
2022-12-02T01:47:25.836Z,0.33
2022-12-02T01:49:57.589Z,0.34
2022-12-02T01:52:29.662Z,0.32
2022-12-02T01:55:01.133Z,0.36
2022-12-02T01:57:33.217Z,0.43
2022-12-02T02:00:06.399Z,0.41
2022-12-02T02:02:39.630Z,0.42
2022-12-02T02:05:15.002Z,0.49
2022-12-02T02:07:48.794Z,0.52
2022-12-02T02:10:21.355Z,0.45
2022-12-02T02:12:53.988Z,0.44
2022-12-02T02:15:26.663Z,0.42
2022-12-02T02:18:04.905Z,0.48
2022-12-02T02:20:40.660Z,0.50
2022-12-02T02:23:25.182Z,0.41
2022-12-02T02:25:59.428Z,0.31
2022-12-02T02:28:31.705Z,0.24
2022-12-02T02:31:03.292Z,0.23
2022-12-02T02:33:36.620Z,0.28
2022-12-02T02:36:08.839Z,0.26
2022-12-02T02:38:41.292Z,0.27
2022-12-02T02:41:13.054Z,0.23
2022-12-02T02:43:44.648Z,0.22
2022-12-02T02:46:17.018Z,0.27
2022-12-02T02:48:48.905Z,0.26
2022-12-02T02:51:20.652Z,0.21
2022-12-02T02:53:52.309Z,0.12
2022-12-02T02:56:23.831Z,0.17
2022-12-02T02:58:56.069Z,0.22
2022-12-02T03:01:31.227Z,0.28
2022-12-02T03:04:05.064Z,0.34
2022-12-02T03:06:37.745Z,0.32
2022-12-02T03:09:11.157Z,0.37
2022-12-02T03:11:44.157Z,0.40
2022-12-02T03:14:17.639Z,0.47
2022-12-02T03:16:50.797Z,0.40
2022-12-02T03:19:22.938Z,0.44
2022-12-02T03:21:54.490Z,0.41
2022-12-02T03:24:26.140Z,0.31
2022-12-02T03:26:57.998Z,0.23
2022-12-02T03:29:31.377Z,0.16
2022-12-02T03:32:04.562Z,0.09
2022-12-02T03:34:36.276Z,0.25
2022-12-02T03:37:07.866Z,0.24
2022-12-02T03:39:39.692Z,0.20
2022-12-02T03:42:11.088Z,0.18
2022-12-02T03:44:42.684Z,0.12
2022-12-02T03:47:14.524Z,0.20
2022-12-02T03:49:46.189Z,0.29
2022-12-02T03:52:17.992Z,0.27
2022-12-02T03:54:54.859Z,0.20
2022-12-02T03:57:27.425Z,0.27
2022-12-02T03:59:59.458Z,0.33
2022-12-02T04:02:30.970Z,0.30
2022-12-02T04:05:02.334Z,0.25
2022-12-02T04:07:33.843Z,0.08
2022-12-02T04:10:06.317Z,-0.00
2022-12-02T04:12:37.700Z,0.01
2022-12-02T04:15:10.320Z,0.02
2022-12-02T04:17:41.806Z,-0.05
2022-12-02T04:20:15.313Z,-0.06
2022-12-02T04:22:46.758Z,-0.13
2022-12-02T04:25:18.283Z,-0.17
2022-12-02T04:27:49.730Z,-0.16
2022-12-02T04:30:26.713Z,-0.06
2022-12-02T04:33:06.294Z,0.01
2022-12-02T04:35:41.380Z,0.11
2022-12-02T04:38:12.853Z,0.15
2022-12-02T04:40:45.398Z,0.02
2022-12-02T04:43:16.761Z,0.00
2022-12-02T04:45:48.189Z,-0.04
2022-12-02T04:48:19.691Z,-0.15
2022-12-02T04:50:51.082Z,-0.28
2022-12-02T04:53:22.710Z,-0.33
2022-12-02T04:55:54.121Z,-0.35
2022-12-02T04:58:25.430Z,-0.41
2022-12-02T05:00:57.008Z,-0.35
2022-12-02T05:03:28.400Z,-0.45
2022-12-02T05:06:00.091Z,-0.37
2022-12-02T05:08:31.530Z,-0.21
2022-12-02T05:11:02.924Z,-0.10
2022-12-02T05:13:34.484Z,-0.28
2022-12-02T05:16:06.049Z,-0.38
2022-12-02T05:18:37.461Z,-0.38
2022-12-02T05:21:09.141Z,-0.45
2022-12-02T05:23:40.433Z,-0.40
2022-12-02T05:26:12.181Z,-0.36
2022-12-02T05:28:43.997Z,-0.47
2022-12-02T05:31:15.925Z,-0.54
2022-12-02T05:33:47.532Z,-0.60
2022-12-02T05:36:18.970Z,-0.58
2022-12-02T05:38:50.273Z,-0.56
2022-12-02T05:41:21.808Z,-0.55
2022-12-02T05:43:53.313Z,-0.52
2022-12-02T05:46:25.110Z,-0.41
2022-12-02T05:48:56.620Z,-0.25
2022-12-02T05:51:29.347Z,-0.21
2022-12-02T05:54:01.495Z,-0.14
2022-12-02T05:56:34.422Z,-0.20
2022-12-02T05:59:15.251Z,-0.20
2022-12-02T06:01:49.972Z,-0.28
2022-12-02T06:04:21.475Z,-0.29
2022-12-02T06:06:56.381Z,-0.20
2022-12-02T06:09:30.162Z,-0.17
2022-12-02T06:12:02.413Z,-0.21
2022-12-02T06:14:36.666Z,-0.19
2022-12-02T06:17:18.089Z,-0.22
2022-12-02T06:19:53.845Z,-0.24
2022-12-02T06:22:28.512Z,-0.19
2022-12-02T06:25:01.933Z,-0.20
2022-12-02T06:27:34.731Z,-0.32
2022-12-02T06:30:16.206Z,-0.40
2022-12-02T06:32:53.927Z,-0.43
2022-12-02T06:35:28.803Z,-0.54
2022-12-02T06:38:03.897Z,-0.56
2022-12-02T06:40:37.057Z,-0.55
2022-12-02T06:43:17.438Z,-0.58
2022-12-02T06:45:49.063Z,-0.59
2022-12-02T06:48:34.956Z,-0.58
2022-12-02T06:51:17.586Z,-0.57
2022-12-02T06:53:49.914Z,-0.52
2022-12-02T06:56:26.717Z,-0.52
2022-12-02T06:59:02.468Z,-0.43
2022-12-02T07:01:39.075Z,-0.40
2022-12-02T07:04:32.445Z,-0.37
2022-12-02T07:07:13.399Z,-0.34
2022-12-02T07:09:47.172Z,-0.42
2022-12-02T07:12:22.725Z,-0.48
2022-12-02T07:14:56.416Z,-0.51
2022-12-02T07:17:31.230Z,-0.60
2022-12-02T07:20:03.388Z,-0.47
2022-12-02T07:22:38.421Z,-0.44
2022-12-02T07:25:33.354Z,-0.45
2022-12-02T07:28:10.710Z,-0.42
2022-12-02T07:30:44.093Z,-0.49
2022-12-02T07:33:15.407Z,-0.55
2022-12-02T07:35:48.945Z,-0.59
2022-12-02T07:38:42.877Z,-0.47
2022-12-02T07:41:13.858Z,-0.38
2022-12-02T07:43:45.133Z,-0.47
2022-12-02T07:46:17.052Z,-0.54
2022-12-02T07:48:55.768Z,-0.53
2022-12-02T07:51:28.441Z,-0.65
2022-12-02T07:53:59.948Z,-0.75
2022-12-02T07:56:31.407Z,-0.78
2022-12-02T07:59:12.026Z,-0.76
2022-12-02T08:01:45.709Z,-0.66
2022-12-02T08:04:17.176Z,-0.53
2022-12-02T08:06:48.892Z,-0.49
2022-12-02T08:09:20.215Z,-0.52
2022-12-02T08:11:51.626Z,-0.51
2022-12-02T08:14:22.997Z,-0.44
2022-12-02T08:16:54.910Z,-0.31
2022-12-02T08:19:26.530Z,-0.17
2022-12-02T08:21:58.703Z,-0.25
2022-12-02T08:24:30.048Z,-0.27
2022-12-02T08:27:01.679Z,-0.38
2022-12-02T08:29:33.119Z,-0.38
2022-12-02T08:32:07.395Z,-0.35
2022-12-02T08:34:38.774Z,-0.42
2022-12-02T08:37:10.922Z,-0.49
2022-12-02T08:39:43.058Z,-0.47
2022-12-02T08:42:15.281Z,-0.52
2022-12-02T08:44:46.770Z,-0.47
2022-12-02T08:47:18.041Z,-0.29
2022-12-02T08:49:50.788Z,-0.14
2022-12-02T08:52:22.161Z,-0.13
2022-12-02T08:54:54.195Z,-0.10
2022-12-02T08:57:25.937Z,-0.10
2022-12-02T08:59:57.355Z,-0.09
2022-12-02T09:02:28.859Z,0.04
2022-12-02T09:05:00.716Z,0.14
2022-12-02T09:07:32.171Z,0.21
2022-12-02T09:10:03.653Z,0.13
2022-12-02T09:12:35.032Z,0.15
2022-12-02T09:15:07.489Z,0.15
2022-12-02T09:17:38.832Z,0.08
2022-12-02T09:20:11.448Z,0.06
2022-12-02T09:22:43.045Z,0.04
2022-12-02T09:25:15.323Z,0.09
2022-12-02T09:27:47.137Z,0.06
2022-12-02T09:30:18.968Z,-0.01
2022-12-02T09:32:50.370Z,0.06
2022-12-02T09:35:21.752Z,0.06
2022-12-02T09:37:53.341Z,0.11
2022-12-02T09:40:25.370Z,0.18
2022-12-02T09:42:56.931Z,0.13
2022-12-02T09:45:28.702Z,0.22
2022-12-02T09:48:00.983Z,0.19
2022-12-02T09:50:32.347Z,0.17
2022-12-02T09:53:09.713Z,0.18
2022-12-02T09:55:41.882Z,0.18
2022-12-02T09:58:20.393Z,0.18
2022-12-02T10:00:54.734Z,0.14
2022-12-02T10:03:29.970Z,0.10
2022-12-02T10:06:06.475Z,-0.02
2022-12-02T10:08:38.379Z,-0.04
2022-12-02T10:11:18.711Z,-0.08
2022-12-02T10:13:50.909Z,-0.13
2022-12-02T10:16:22.424Z,-0.14
2022-12-02T10:18:53.963Z,-0.20
2022-12-02T10:21:25.272Z,-0.16
2022-12-02T10:23:59.064Z,-0.19
2022-12-02T10:26:43.750Z,-0.19
2022-12-02T10:29:19.884Z,-0.13
2022-12-02T10:32:33.085Z,-0.06
2022-12-02T10:35:10.373Z,-0.08
2022-12-02T10:37:41.993Z,-0.14
2022-12-02T10:40:19.466Z,-0.22
2022-12-02T10:43:08.416Z,-0.33
2022-12-02T10:45:39.976Z,-0.33
2022-12-02T10:48:20.329Z,-0.21
2022-12-02T10:50:51.765Z,-0.30
2022-12-02T10:53:25.900Z,-0.44
2022-12-02T10:55:58.622Z,-0.45
2022-12-02T10:58:31.209Z,-0.30
2022-12-02T11:01:03.202Z,-0.25
2022-12-02T11:03:34.856Z,-0.15
2022-12-02T11:06:12.261Z,-0.10
2022-12-02T11:08:44.601Z,-0.00
2022-12-02T11:11:19.447Z,0.08
2022-12-02T11:13:55.887Z,0.05
2022-12-02T11:16:54.195Z,-0.02
2022-12-02T11:19:45.551Z,-0.06
2022-12-02T11:22:56.724Z,-0.09
2022-12-02T11:26:07.555Z,-0.13
2022-12-02T11:29:18.517Z,-0.29
2022-12-02T11:32:17.460Z,-0.28
2022-12-02T11:37:46.814Z,-0.05
2022-12-02T11:41:00.883Z,0.07
2022-12-02T11:44:11.933Z,-0.09
2022-12-02T11:46:45.855Z,-0.26
2022-12-02T11:49:37.594Z,-0.40
2022-12-02T11:52:22.238Z,-0.43
2022-12-02T11:55:06.839Z,-0.52
2022-12-02T11:57:48.741Z,-0.64
2022-12-02T12:00:38.009Z,-0.68
2022-12-02T12:03:13.874Z,-0.69
2022-12-02T12:06:06.283Z,-0.51
2022-12-02T12:08:39.531Z,-0.41
2022-12-02T12:11:22.366Z,-0.41
2022-12-02T12:14:20.817Z,-0.44
2022-12-02T12:16:53.209Z,-0.47
2022-12-02T12:19:31.140Z,-0.36
2022-12-02T12:22:02.535Z,-0.48
2022-12-02T12:24:37.791Z,-0.63
2022-12-02T12:27:34.379Z,-0.60
2022-12-02T12:30:06.829Z,-0.61
2022-12-02T12:32:38.207Z,-0.70
2022-12-02T12:35:11.247Z,-0.66
2022-12-02T12:37:42.510Z,-0.64
2022-12-02T12:40:15.649Z,-0.67
2022-12-02T12:42:46.950Z,-0.63
2022-12-02T12:45:18.422Z,-0.57
2022-12-02T12:47:49.778Z,-0.74
2022-12-02T12:50:24.516Z,-0.79
2022-12-02T12:52:58.811Z,-0.78
2022-12-02T12:55:30.320Z,-0.75
2022-12-02T12:58:01.679Z,-0.83
2022-12-02T13:00:33.062Z,-0.90
2022-12-02T13:03:05.162Z,-0.86
2022-12-02T13:05:36.737Z,-0.85
2022-12-02T13:08:09.827Z,-0.86
2022-12-02T13:10:42.122Z,-0.87
2022-12-02T13:13:13.565Z,-0.86
2022-12-02T13:15:45.113Z,-0.86
2022-12-02T13:18:16.686Z,-1.01
2022-12-02T13:20:48.428Z,-1.08
2022-12-02T13:23:19.906Z,-1.13
2022-12-02T13:25:51.399Z,-1.09
2022-12-02T13:28:22.872Z,-1.15
2022-12-02T13:30:55.438Z,-1.04
2022-12-02T13:33:29.130Z,-0.91
2022-12-02T13:36:02.538Z,-0.81
2022-12-02T13:38:35.485Z,-0.75
2022-12-02T13:41:09.062Z,-0.64
2022-12-02T13:43:42.185Z,-0.63
2022-12-02T13:46:16.842Z,-0.54
2022-12-02T13:48:50.560Z,-0.47
2022-12-02T13:51:23.351Z,-0.45
2022-12-02T13:53:59.074Z,-0.48
2022-12-02T13:56:32.729Z,-0.46
2022-12-02T13:59:06.561Z,-0.45
2022-12-02T14:01:39.873Z,-0.51
2022-12-02T14:04:12.814Z,-0.57
2022-12-02T14:06:46.417Z,-0.49
2022-12-02T14:09:21.465Z,-0.44
2022-12-02T14:11:55.185Z,-0.51
2022-12-02T14:14:28.137Z,-0.58
2022-12-02T14:17:00.282Z,-0.64
2022-12-02T14:19:31.648Z,-0.67
2022-12-02T14:22:03.243Z,-0.71
2022-12-02T14:24:34.680Z,-0.70
2022-12-02T14:27:06.115Z,-0.61
2022-12-02T14:29:37.586Z,-0.59
2022-12-02T14:32:09.519Z,-0.64
2022-12-02T14:34:41.204Z,-0.64
2022-12-02T14:37:15.111Z,-0.59
2022-12-02T14:39:46.930Z,-0.52
2022-12-02T14:42:18.436Z,-0.39
2022-12-02T14:44:50.513Z,-0.35
2022-12-02T14:47:22.158Z,-0.49
2022-12-02T14:49:53.590Z,-0.55
2022-12-02T14:52:25.121Z,-0.60
2022-12-02T14:54:56.476Z,-0.53
2022-12-02T14:57:27.946Z,-0.53
2022-12-02T14:59:59.333Z,-0.48
2022-12-02T15:02:30.892Z,-0.56
2022-12-02T15:05:02.717Z,-0.57
2022-12-02T15:07:34.669Z,-0.51
2022-12-02T15:10:06.896Z,-0.43
2022-12-02T15:12:38.387Z,-0.37
2022-12-02T15:15:36.903Z,-0.41
2022-12-02T15:18:03.739Z,-0.48
2022-12-02T15:20:35.402Z,-0.45
2022-12-02T15:23:06.879Z,-0.42
2022-12-02T15:25:40.036Z,-0.57
2022-12-02T15:28:11.804Z,-0.65
2022-12-02T15:30:43.581Z,-0.69
2022-12-02T15:33:15.311Z,-0.53
2022-12-02T15:35:47.067Z,-0.51
2022-12-02T15:38:18.979Z,-0.49
2022-12-02T15:40:51.120Z,-0.45
2022-12-02T15:43:23.120Z,-0.37
2022-12-02T15:45:55.874Z,-0.34
2022-12-02T15:48:27.437Z,-0.39
2022-12-02T15:50:59.428Z,-0.35
2022-12-02T15:53:31.024Z,-0.22
2022-12-02T15:56:02.676Z,-0.14
2022-12-02T15:58:34.777Z,-0.21
2022-12-02T16:01:06.408Z,-0.27
2022-12-02T16:03:39.459Z,-0.36
2022-12-02T16:06:11.953Z,-0.44
2022-12-02T16:08:43.598Z,-0.48
2022-12-02T16:11:15.904Z,-0.50
2022-12-02T16:13:47.719Z,-0.45
2022-12-02T16:16:19.793Z,-0.40
2022-12-02T16:18:52.186Z,-0.34
2022-12-02T16:21:23.810Z,-0.42
2022-12-02T16:23:56.177Z,-0.47
2022-12-02T16:26:29.884Z,-0.49
2022-12-02T16:29:01.822Z,-0.44
2022-12-02T16:31:34.878Z,-0.31
2022-12-02T16:34:07.006Z,-0.24
2022-12-02T16:36:39.189Z,-0.19
2022-12-02T16:39:11.127Z,-0.26
2022-12-02T16:41:43.352Z,-0.27
2022-12-02T16:44:16.170Z,-0.19
2022-12-02T16:46:49.157Z,-0.15
2022-12-02T16:49:21.463Z,-0.13
2022-12-02T16:51:52.966Z,-0.10
2022-12-02T16:54:26.016Z,-0.10
2022-12-02T16:56:59.228Z,-0.08
2022-12-02T16:59:31.384Z,-0.13
2022-12-02T17:02:06.653Z,-0.29
2022-12-02T17:04:38.865Z,-0.33
2022-12-02T17:07:10.974Z,-0.30
2022-12-02T17:09:43.002Z,-0.28
2022-12-02T17:12:14.761Z,-0.28
2022-12-02T17:14:52.070Z,-0.25
2022-12-02T17:20:19.881Z,-0.27
2022-12-02T17:22:51.741Z,-0.23
2022-12-02T17:25:24.341Z,-0.23
2022-12-02T17:27:56.359Z,-0.39
2022-12-02T17:30:28.120Z,-0.39
2022-12-02T17:33:02.259Z,-0.37
2022-12-02T17:35:35.150Z,-0.36
2022-12-02T17:38:07.904Z,-0.36
2022-12-02T17:40:40.363Z,-0.41
2022-12-02T17:43:12.561Z,-0.37
2022-12-02T17:45:45.042Z,-0.30
2022-12-02T17:48:17.320Z,-0.35
2022-12-02T17:50:49.608Z,-0.38
2022-12-02T17:53:21.634Z,-0.50
2022-12-02T17:55:53.966Z,-0.52
2022-12-02T17:58:34.254Z,-0.53
2022-12-02T18:01:11.600Z,-0.52
2022-12-02T18:03:44.381Z,-0.52
2022-12-02T18:06:16.253Z,-0.45
2022-12-02T18:08:51.421Z,-0.42
2022-12-02T18:11:24.828Z,-0.46
2022-12-02T18:14:01.886Z,-0.44
2022-12-02T18:16:34.411Z,-0.43
2022-12-02T18:19:07.967Z,-0.48
2022-12-02T18:21:41.392Z,-0.36
2022-12-02T18:24:13.239Z,-0.30
2022-12-02T18:26:45.853Z,-0.23
2022-12-02T18:29:18.135Z,-0.21
2022-12-02T18:31:51.126Z,-0.24
2022-12-02T18:34:24.579Z,-0.31
2022-12-02T18:36:58.004Z,-0.27
2022-12-02T18:39:30.300Z,-0.35
2022-12-02T18:42:03.543Z,-0.36
2022-12-02T18:44:35.745Z,-0.35
2022-12-02T18:47:08.893Z,-0.29
2022-12-02T18:49:42.931Z,-0.22
2022-12-02T18:52:15.459Z,-0.21
2022-12-02T18:54:48.045Z,-0.19
2022-12-02T18:57:20.796Z,-0.22
2022-12-02T18:59:53.687Z,-0.22
2022-12-02T19:02:25.787Z,-0.23
2022-12-02T19:04:58.328Z,-0.21
2022-12-02T19:07:31.293Z,-0.23
2022-12-02T19:10:04.498Z,-0.22
2022-12-02T19:12:39.044Z,-0.23
2022-12-02T19:15:21.571Z,-0.25
2022-12-02T19:17:54.128Z,-0.30
2022-12-02T19:20:28.125Z,-0.22
2022-12-02T19:23:00.742Z,-0.26
2022-12-02T19:25:37.546Z,-0.34
2022-12-02T19:28:13.119Z,-0.37
2022-12-02T19:30:44.920Z,-0.38
2022-12-02T19:33:18.179Z,-0.33
2022-12-02T19:35:51.691Z,-0.32
2022-12-02T19:38:23.941Z,-0.27
2022-12-02T19:40:56.486Z,-0.24
2022-12-02T19:43:33.909Z,-0.25
2022-12-02T19:46:09.156Z,-0.36
2022-12-02T19:48:41.949Z,-0.37
2022-12-02T19:51:14.305Z,-0.36
2022-12-02T19:53:47.438Z,-0.38
2022-12-02T19:56:20.742Z,-0.31
2022-12-02T19:58:53.483Z,-0.30
2022-12-02T20:01:26.765Z,-0.28
2022-12-02T20:04:14.101Z,-0.37
2022-12-02T20:06:55.569Z,-0.44
2022-12-02T20:09:27.638Z,-0.49
2022-12-02T20:11:59.740Z,-0.69
2022-12-02T20:14:31.752Z,-0.81
2022-12-02T20:17:04.565Z,-0.84
2022-12-02T20:19:36.662Z,-0.89
2022-12-02T20:22:08.991Z,-1.00
2022-12-02T20:24:41.303Z,-1.07
2022-12-02T20:27:13.305Z,-1.14
2022-12-02T20:29:44.941Z,-1.21
2022-12-02T20:32:17.140Z,-1.19
2022-12-02T20:34:50.527Z,-1.21
2022-12-02T20:37:24.391Z,-1.14
2022-12-02T20:39:56.716Z,-1.02
2022-12-02T20:42:28.698Z,-1.18
2022-12-02T20:45:00.776Z,-1.19
2022-12-02T20:47:32.326Z,-1.16
2022-12-02T20:50:04.321Z,-1.12
2022-12-02T20:52:36.542Z,-1.11
2022-12-02T20:55:09.978Z,-1.09
2022-12-02T20:57:42.565Z,-1.02
2022-12-02T21:00:17.193Z,-0.97
2022-12-02T21:02:49.188Z,-0.89
2022-12-02T21:05:22.368Z,-0.95
2022-12-02T21:07:54.470Z,-0.91
2022-12-02T21:10:26.982Z,-0.94
2022-12-02T21:13:00.839Z,-0.96
2022-12-02T21:15:32.449Z,-0.93
2022-12-02T21:18:04.558Z,-0.98
2022-12-02T21:20:37.109Z,-1.03
2022-12-02T21:23:09.016Z,-1.02
2022-12-02T21:25:41.093Z,-1.07
2022-12-02T21:28:12.707Z,-1.02
2022-12-02T21:30:44.094Z,-0.96
2022-12-02T21:33:17.211Z,-0.96
2022-12-02T21:35:49.767Z,-0.95
2022-12-02T21:38:22.110Z,-0.99
2022-12-02T21:40:53.496Z,-1.02
2022-12-02T21:43:25.041Z,-1.00
2022-12-02T21:45:58.398Z,-0.98
2022-12-02T21:48:30.010Z,-0.98
2022-12-02T21:51:02.117Z,-0.91
2022-12-02T21:53:33.478Z,-0.91
2022-12-02T21:56:05.115Z,-0.90
2022-12-02T21:58:36.552Z,-0.84
2022-12-02T22:01:25.822Z,-0.85
2022-12-02T22:03:57.237Z,-0.96
2022-12-02T22:06:28.864Z,-0.87
2022-12-02T22:09:00.714Z,-0.87
2022-12-02T22:11:32.192Z,-0.86
2022-12-02T22:14:04.093Z,-0.83
2022-12-02T22:16:35.857Z,-0.76
2022-12-02T22:19:13.308Z,-0.82
2022-12-02T22:21:46.565Z,-0.79
2022-12-02T22:24:18.226Z,-0.72
2022-12-02T22:26:49.683Z,-0.69
2022-12-02T22:29:21.137Z,-0.75
2022-12-02T22:31:52.610Z,-0.74
2022-12-02T22:34:24.222Z,-0.78
2022-12-02T22:36:55.753Z,-0.81
2022-12-02T22:39:27.618Z,-0.81
2022-12-02T22:41:59.072Z,-0.79
2022-12-02T22:44:30.786Z,-0.83
2022-12-02T22:47:05.316Z,-0.71
2022-12-02T22:49:36.950Z,-0.69
2022-12-02T22:52:09.191Z,-0.75
2022-12-02T22:54:41.104Z,-0.68
2022-12-02T22:57:12.759Z,-0.50
2022-12-02T22:59:44.228Z,-0.35
2022-12-02T23:02:17.588Z,-0.26
2022-12-02T23:04:49.390Z,-0.19
2022-12-02T23:07:20.812Z,-0.15
2022-12-02T23:09:52.223Z,-0.13
2022-12-02T23:12:25.913Z,-0.12
2022-12-02T23:15:09.847Z,-0.08
2022-12-02T23:17:48.962Z,-0.07
2022-12-02T23:20:20.613Z,-0.29
2022-12-02T23:22:52.080Z,-0.55
2022-12-02T23:25:23.438Z,-0.78
2022-12-02T23:27:54.849Z,-0.84
2022-12-02T23:30:29.208Z,-0.87
2022-12-02T23:33:01.338Z,-0.88
2022-12-02T23:35:32.734Z,-0.81
2022-12-02T23:38:04.187Z,-0.82
2022-12-02T23:40:35.692Z,-0.78
2022-12-02T23:43:07.041Z,-0.86
2022-12-02T23:45:38.419Z,-0.85
2022-12-02T23:48:10.016Z,-0.85
2022-12-02T23:50:41.374Z,-0.86
2022-12-02T23:53:13.480Z,-0.82
2022-12-02T23:55:44.964Z,-0.80
2022-12-02T23:58:16.411Z,-0.87
